METAR Data
IDs: Format: Raw Decoded Include TAF

Data at: 0028 UTC 26 Oct 2021

KRBD 252353Z 07007KT 10SM CLR 27/12 A2991 RMK AO2 SLP120 T02720122 10300 20272 55000
KRBD 252253Z 08007KT 10SM CLR 29/18 A2989 RMK AO2 SLP114 T02940178
KRBD 252153Z 12007KT 10SM CLR 30/18 A2989 RMK AO2 SLP115 T03000178
KRBD 252053Z 00000KT 10SM CLR 29/17 A2991 RMK AO2 SLP120 T02940172 56018
KRBD 251953Z VRB04KT 10SM CLR 29/16 A2992 RMK AO2 SLP124 T02890161
KRBD 251853Z 16005KT 10SM CLR 28/16 A2994 RMK AO2 SLP130 T02830161
KRBD 251753Z 15005KT 10SM CLR 27/14 A2996 RMK AO2 SLP138 T02720139 10272 20167 58011
KRBD 251653Z 11006KT 10SM CLR 26/12 A2998 RMK AO2 SLP144 T02560117
KRBD 251553Z 08008KT 10SM CLR 24/11 A2999 RMK AO2 SLP146 T02440106
KRBD 251453Z 08008KT 10SM CLR 22/11 A3000 RMK AO2 SLP150 T02170111 51018
KRBD 251353Z 09005KT 10SM CLR 19/13 A2998 RMK AO2 SLP146 T01940128
KRBD 251253Z 11004KT 10SM CLR 17/13 A2996 RMK AO2 SLP139 T01720128
KRBD 251153Z 11003KT 10SM CLR 18/13 A2994 RMK AO2 SLP132 T01780128 10228 20178 53007
KRBD 251053Z 07004KT 10SM CLR 19/13 A2994 RMK AO2 SLP131 T01890133
KRBD 250953Z 07004KT 10SM CLR 19/14 A2992 RMK AO2 SLP125 T01890139
KRBD 250853Z 05004KT 10SM CLR 20/14 A2992 RMK AO2 SLP123 T02000139 51007
KRBD 250753Z 05008KT 10SM CLR 21/14 A2992 RMK AO2 SLP123 T02060144
KRBD 250653Z 02004KT 10SM CLR 21/16 A2990 RMK AO2 SLP118 T02110156
KRBD 250553Z 36008KT 10SM CLR 23/16 A2990 RMK AO2 SLP116 T02280161 10267 20222 402890189 51015
KRBD 250453Z 30004KT 10SM SCT049 24/19 A2989 RMK AO2 SLP114 T02390189
KRBD 250353Z 30006KT 10SM FEW041 BKN049 BKN060 24/19 A2988 RMK AO2 SLP110 T02390189
KRBD 250253Z 31008KT 10SM SCT046 BKN070 25/19 A2985 RMK AO2 SLP102 T02500189 53025
KRBD 250153Z 19010KT 10SM CLR 25/18 A2981 RMK AO2 LTG DSNT N SLP086 T02500183
KRBD 250053Z 18011G17KT 10SM CLR 26/19 A2978 RMK AO2 LTG DSNT N SLP078 T02560189
KRBD 242353Z 18011KT 10SM CLR 27/19 A2978 RMK AO2 SLP076 T02670189 10289 20261 51005
KRBD 242253Z 18010G19KT 10SM CLR 28/19 A2977 RMK AO2 SLP073 T02780189
KRBD 242153Z 19013G19KT 10SM BKN042 28/18 A2978 RMK AO2 SLP076 T02830183
KRBD 242053Z 19014G23KT 10SM FEW038 29/18 A2976 RMK AO2 SLP069 T02890183 56018
KRBD 241953Z 20012G22KT 10SM BKN041 28/18 A2978 RMK AO2 SLP074 T02830183
KRBD 241853Z 20016G25KT 10SM SCT032 28/19 A2978 RMK AO2 SLP077 T02780189
KRBD 241809Z 18014G23KT 10SM FEW022 27/19 A2981 RMK AO2 T02670189
KRBD 241753Z 19013G22KT 10SM BKN021 BKN027 26/19 A2981 RMK AO2 PK WND 18026/1657 SLP087 T02610194 10261 20194 58013
KRBD 241653Z 18015G24KT 10SM OVC015 24/19 A2984 RMK AO2 SLP098 T02440194
KRBD 241630Z 18014G23KT 10SM OVC015 24/19 A2985 RMK AO2 T02390189
KRBD 241553Z 17012G19KT 10SM OVC009 22/19 A2986 RMK AO2 SLP103 T02220189
KRBD 241453Z 17011KT 10SM OVC006 21/18 A2985 RMK AO2 SLP101 T02060183 50008
KRBD 241353Z 17009KT 8SM OVC005 20/18 A2986 RMK AO2 SLP104 T02000183
KRBD 241253Z COR 17009KT 10SM OVC006 19/18 A2984 RMK AO2 SLP097 T01940183